Time;durP1;ratioP1;P1;durP2;ratioP2;P2;SDS_P1;SDS_P2;PMS_P1;PMS_P2;Temp;Humidity;BMP_temperature;BMP_pressure;BME280_temperature;BME280_humidity;BME280_pressure;Samples;Min_cycle;Max_cycle;Signal;HPM_P1;HPM_P2
2022/04/11 00:00:03;;;;;;;9.33;7.03;;;;;;;;;;2608764;54;20479;-70
2022/04/11 00:02:30;;;;;;;7.83;7.10;;;3.50;99.90;;;;;;2610229;54;20380;-71
2022/04/11 00:04:56;;;;;;;10.07;6.23;;;;;;;;;;2611566;54;20403;-70
2022/04/11 00:07:22;;;;;;;8.00;6.50;;;3.50;99.90;;;;;;2611146;54;20158;-71
2022/04/11 00:09:48;;;;;;;7.27;6.50;;;;;;;;;;2614367;39;20803;-71
2022/04/11 00:12:14;;;;;;;6.97;6.37;;;;;;;;;;2613748;54;20151;-70
2022/04/11 00:14:40;;;;;;;10.70;7.60;;;3.60;99.90;;;;;;2609475;54;20395;-72
2022/04/11 00:17:05;;;;;;;9.83;7.43;;;3.50;99.90;;;;;;2610649;47;20610;-71
2022/04/11 00:19:32;;;;;;;7.67;6.57;;;;;;;;;;2612704;54;20192;-70
2022/04/11 00:21:57;;;;;;;7.60;6.90;;;3.40;99.90;;;;;;2611586;47;20693;-70
2022/04/11 00:24:23;;;;;;;9.70;7.10;;;3.40;99.90;;;;;;2609143;54;20408;-70
2022/04/11 00:26:49;;;;;;;7.63;6.90;;;3.40;99.90;;;;;;2613082;54;20709;-70
2022/04/11 00:29:15;;;;;;;7.87;6.87;;;;;;;;;;2613531;54;20155;-71
2022/04/11 00:31:41;;;;;;;8.73;6.50;;;3.40;99.90;;;;;;2612867;47;20419;-69
2022/04/11 00:34:07;;;;;;;8.40;5.90;;;3.40;99.90;;;;;;2610496;47;21210;-70
2022/04/11 00:36:33;;;;;;;6.57;5.93;;;3.40;99.90;;;;;;2611930;39;20509;-70
2022/04/11 00:38:59;;;;;;;11.00;5.90;;;;;;;;;;2610591;39;20788;-69
2022/04/11 00:41:25;;;;;;;10.90;6.70;;;3.50;99.90;;;;;;2611144;54;20176;-71
2022/04/11 00:43:51;;;;;;;6.03;5.17;;;3.50;99.90;;;;;;2610864;47;20522;-71
2022/04/11 00:46:17;;;;;;;9.73;6.90;;;3.70;99.90;;;;;;2609528;54;20154;-72
2022/04/11 00:48:43;;;;;;;5.73;5.23;;;;;;;;;;2611103;54;20467;-71
2022/04/11 00:51:19;;;;;;;8.23;7.53;;;3.70;96.60;;;;;;2608669;54;20989;-71
2022/04/11 00:53:46;;;;;;;9.83;5.03;;;2.70;90.60;;;;;;2610228;47;20964;-71
2022/04/11 00:56:16;;;;;;;5.57;5.17;;;3.80;91.30;;;;;;2610451;54;20967;-71
2022/04/11 00:58:41;;;;;;;7.57;5.20;;;3.80;87.70;;;;;;2611646;54;20392;-71
2022/04/11 01:01:08;;;;;;;7.90;6.00;;;3.90;85.10;;;;;;2609493;54;20431;-73
2022/04/11 01:03:35;;;;;;;5.60;5.10;;;4.00;79.20;;;;;;2610524;54;20178;-72
2022/04/11 01:06:01;;;;;;;5.97;5.37;;;4.00;77.00;;;;;;2610481;51;20915;-72
2022/04/11 01:08:28;;;;;;;6.47;5.87;;;4.20;70.50;;;;;;2611023;39;20894;-72
2022/04/11 01:10:54;;;;;;;5.13;4.73;;;4.30;66.60;;;;;;2609828;54;20412;-73
2022/04/11 01:13:22;;;;;;;5.10;4.57;;;;;;;;;;2611258;47;20448;-72
2022/04/11 01:15:58;;;;;;;6.17;4.10;;;4.50;61.30;;;;;;2610928;54;21006;-73
2022/04/11 01:18:25;;;;;;;6.00;5.27;;;4.60;59.10;;;;;;2610758;51;20439;-72
2022/04/11 01:20:52;;;;;;;5.47;4.87;;;4.80;68.50;;;;;;2611737;54;20416;-73
2022/04/11 01:23:18;;;;;;;5.57;5.10;;;4.60;58.60;;;;;;2613690;54;20391;-73
2022/04/11 01:25:52;;;;;;;8.60;4.60;;;4.60;58.90;;;;;;2609130;54;20419;-73
2022/04/11 01:28:21;;;;;;;5.43;4.93;;;4.60;59.00;;;;;;2610055;47;20514;-73
2022/04/11 01:30:52;;;;;;;7.00;4.73;;;4.70;59.30;;;;;;2610335;39;21069;-73
2022/04/11 01:33:22;;;;;;;9.13;4.97;;;4.60;59.10;;;;;;2609847;54;21085;-72
2022/04/11 01:35:49;;;;;;;8.13;6.30;;;4.70;59.70;;;;;;2611719;54;20448;-73
2022/04/11 01:38:15;;;;;;;5.00;4.57;;;4.70;59.20;;;;;;2610789;54;20428;-72
2022/04/11 01:40:55;;;;;;;9.00;6.10;;;4.70;58.30;;;;;;2607998;47;20424;-72
2022/04/11 01:43:22;;;;;;;6.07;4.63;;;4.70;58.10;;;;;;2609924;54;20507;-72
2022/04/11 01:45:50;;;;;;;4.83;4.53;;;4.70;58.60;;;;;;2611971;54;20427;-73
2022/04/11 01:48:19;;;;;;;5.33;4.93;;;4.60;58.20;;;;;;2610048;54;20428;-72
2022/04/11 01:50:46;;;;;;;5.03;4.60;;;4.70;58.20;;;;;;2609909;47;20406;-73
2022/04/11 01:53:18;;;;;;;4.60;4.20;;;4.80;56.60;;;;;;2613614;39;20570;-72
2022/04/11 01:55:45;;;;;;;4.30;4.00;;;4.70;57.00;;;;;;2612888;54;21525;-73
2022/04/11 01:58:12;;;;;;;4.83;4.27;;;4.80;57.00;;;;;;2611229;54;20478;-73
2022/04/11 02:00:39;;;;;;;6.70;4.60;;;4.70;56.70;;;;;;2610596;31;20820;-72
2022/04/11 02:03:07;;;;;;;5.73;5.23;;;4.80;55.00;;;;;;2609741;47;20999;-73
2022/04/11 02:05:34;;;;;;;4.93;4.47;;;4.80;56.20;;;;;;2609235;54;20427;-72
2022/04/11 02:08:02;;;;;;;5.20;4.80;;;4.70;56.20;;;;;;2613329;50;20532;-73
2022/04/11 02:10:30;;;;;;;8.47;4.70;;;;;;;;;;2612925;51;20427;-72
2022/04/11 02:12:56;;;;;;;5.40;4.67;;;4.80;55.40;;;;;;2612353;47;20966;-72
2022/04/11 02:15:22;;;;;;;4.93;4.43;;;4.80;55.80;;;;;;2611438;54;20488;-72
2022/04/11 02:17:50;;;;;;;4.77;4.23;;;4.70;55.70;;;;;;2611308;47;20419;-73
2022/04/11 02:20:16;;;;;;;4.73;4.20;;;4.70;55.70;;;;;;2613420;39;20807;-72
2022/04/11 02:22:49;;;;;;;4.70;4.33;;;4.90;54.50;;;;;;2612033;54;20396;-73
2022/04/11 02:25:15;;;;;;;7.57;4.70;;;4.90;54.70;;;;;;2610202;54;20420;-73
2022/04/11 02:27:43;;;;;;;5.07;4.60;;;5.00;53.80;;;;;;2608229;47;20419;-73
2022/04/11 02:30:10;;;;;;;6.23;4.67;;;5.00;53.60;;;;;;2612345;54;20491;-72
2022/04/11 02:32:36;;;;;;;5.70;5.23;;;5.00;52.70;;;;;;2612510;54;20403;-72
2022/04/11 02:35:03;;;;;;;7.77;4.87;;;5.00;52.30;;;;;;2610698;54;20409;-73
2022/04/11 02:37:29;;;;;;;7.00;4.70;;;5.10;51.20;;;;;;2612807;54;20431;-72
2022/04/11 02:39:55;;;;;;;5.40;5.00;;;5.20;49.80;;;;;;2612003;54;20833;-72
2022/04/11 02:42:25;;;;;;;5.50;4.27;;;5.30;48.20;;;;;;2610643;54;20423;-72
2022/04/11 02:44:55;;;;;;;4.40;4.10;;;5.40;46.60;;;;;;2610347;47;20258;-72
2022/04/11 02:47:22;;;;;;;4.90;4.50;;;5.50;46.20;;;;;;2608790;39;20744;-72
2022/04/11 02:49:49;;;;;;;6.80;4.70;;;5.50;46.10;;;;;;2608987;54;20419;-73
2022/04/11 02:52:28;;;;;;;5.40;4.90;;;5.60;45.60;;;;;;2611862;54;20423;-73
2022/04/11 02:54:55;;;;;;;5.00;4.50;;;5.60;44.60;;;;;;2613216;54;20426;-73
2022/04/11 02:57:22;;;;;;;5.30;4.80;;;5.70;43.60;;;;;;2610306;54;20428;-73
2022/04/11 02:59:50;;;;;;;5.03;4.63;;;5.70;43.60;;;;;;2610635;39;20884;-73
2022/04/11 03:02:16;;;;;;;7.63;4.30;;;5.70;43.50;;;;;;2608477;54;21146;-73
2022/04/11 03:04:42;;;;;;;5.77;4.70;;;5.70;42.60;;;;;;2609330;54;20561;-73
2022/04/11 03:07:16;;;;;;;6.57;4.80;;;5.60;43.50;;;;;;2610399;54;20449;-76
2022/04/11 03:09:42;;;;;;;7.07;4.87;;;5.80;43.10;;;;;;2611787;47;20422;-73
2022/04/11 03:12:10;;;;;;;7.90;4.40;;;5.70;41.90;;;;;;2611816;54;20415;-73
2022/04/11 03:14:36;;;;;;;5.10;4.70;;;5.70;42.20;;;;;;2610832;54;20450;-73
2022/04/11 03:17:04;;;;;;;5.67;4.10;;;5.60;42.80;;;;;;2609241;54;20398;-72
2022/04/11 03:19:32;;;;;;;4.97;4.40;;;5.60;42.90;;;;;;2610185;47;20460;-73
2022/04/11 03:21:59;;;;;;;5.20;4.70;;;5.70;42.40;;;;;;2611646;39;20840;-73
2022/04/11 03:24:25;;;;;;;5.47;5.07;;;5.60;43.40;;;;;;2611568;47;20175;-73
2022/04/11 03:26:52;;;;;;;5.70;5.30;;;5.60;43.60;;;;;;2611500;47;20428;-72
2022/04/11 03:29:25;;;;;;;6.00;5.40;;;5.60;43.10;;;;;;2612761;54;20449;-73
2022/04/11 03:31:52;;;;;;;8.37;5.13;;;5.60;43.10;;;;;;2613536;47;20440;-71
2022/04/11 03:34:19;;;;;;;7.57;5.37;;;5.60;42.90;;;;;;2613546;54;20409;-72
2022/04/11 03:36:45;;;;;;;5.50;5.00;;;5.60;43.10;;;;;;2611863;54;20383;-71
2022/04/11 03:39:11;;;;;;;8.00;5.30;;;5.60;43.20;;;;;;2610715;39;20570;-72
2022/04/11 03:41:39;;;;;;;4.73;4.30;;;5.70;42.80;;;;;;2609849;47;21080;-72
2022/04/11 03:44:14;;;;;;;7.30;5.70;;;5.60;42.80;;;;;;2611017;47;20522;-73
2022/04/11 03:46:41;;;;;;;8.57;5.43;;;5.60;43.60;;;;;;2612255;54;20449;-72
2022/04/11 03:49:10;;;;;;;5.83;5.33;;;5.70;43.00;;;;;;2612352;47;20430;-72
2022/04/11 03:51:36;;;;;;;5.77;5.27;;;5.60;43.40;;;;;;2610329;54;20442;-73
2022/04/11 03:54:03;;;;;;;6.60;5.67;;;5.50;43.40;;;;;;2609819;47;20491;-72
2022/04/11 03:56:29;;;;;;;6.13;5.57;;;5.50;44.40;;;;;;2609432;54;20439;-72
2022/04/11 03:58:57;;;;;;;5.63;5.17;;;5.50;44.50;;;;;;2610931;54;20429;-72
2022/04/11 04:01:23;;;;;;;5.33;4.93;;;5.50;44.40;;;;;;2611550;54;20481;-73
2022/04/11 04:03:49;;;;;;;9.87;5.07;;;5.50;43.80;;;;;;2611125;47;20459;-73
2022/04/11 04:06:14;;;;;;;5.23;4.83;;;5.50;43.90;;;;;;2610935;54;20339;-74
2022/04/11 04:08:44;;;;;;;5.70;4.90;;;5.60;43.00;;;;;;2609905;51;20208;-73
2022/04/11 04:11:28;;;;;;;5.33;4.83;;;5.50;42.50;;;;;;2610738;54;21144;-73
2022/04/11 04:14:05;;;;;;;7.83;4.63;;;5.50;43.40;;;;;;2612505;54;20431;-73
2022/04/11 04:16:34;;;;;;;5.73;5.27;;;5.60;43.20;;;;;;2612306;54;20867;-72
2022/04/11 04:19:04;;;;;;;5.73;5.33;;;5.60;43.30;;;;;;2609828;54;20416;-72
2022/04/11 04:21:30;;;;;;;6.30;4.70;;;5.50;43.30;;;;;;2610730;54;20499;-72
2022/04/11 04:23:56;;;;;;;4.83;4.53;;;5.60;43.40;;;;;;2610523;54;20428;-73
2022/04/11 04:26:24;;;;;;;8.70;4.90;;;5.50;42.70;;;;;;2614208;47;20422;-72
2022/04/11 04:28:51;;;;;;;6.20;5.60;;;5.50;43.20;;;;;;2610737;54;20476;-72
2022/04/11 04:31:19;;;;;;;8.17;4.97;;;5.50;43.70;;;;;;2609263;54;20470;-72
2022/04/11 04:33:46;;;;;;;6.60;5.40;;;5.50;43.80;;;;;;2611291;54;20480;-74
2022/04/11 04:36:13;;;;;;;5.00;4.70;;;5.60;42.70;;;;;;2610753;54;20430;-72
2022/04/11 04:38:39;;;;;;;5.87;5.20;;;5.50;42.20;;;;;;2610547;54;20423;-73
2022/04/11 04:41:05;;;;;;;4.37;4.07;;;5.60;42.30;;;;;;2613384;48;20431;-73
2022/04/11 04:43:31;;;;;;;5.40;4.90;;;5.60;42.40;;;;;;2612197;54;20402;-72
2022/04/11 04:45:58;;;;;;;6.80;5.00;;;5.60;42.00;;;;;;2610579;54;20535;-73
2022/04/11 04:48:50;;;;;;;5.23;4.73;;;5.50;43.50;;;;;;2610986;39;20839;-74
2022/04/11 04:51:20;;;;;;;5.73;5.23;;;5.50;44.10;;;;;;2611669;46;20497;-73
2022/04/11 04:53:52;;;;;;;5.67;5.27;;;5.30;45.30;;;;;;2612552;47;20398;-73
2022/04/11 04:56:18;;;;;;;7.73;6.07;;;5.20;47.00;;;;;;2609042;54;20404;-73
2022/04/11 04:58:45;;;;;;;7.00;5.73;;;5.10;48.30;;;;;;2613105;51;20935;-72
2022/04/11 05:01:13;;;;;;;6.90;6.20;;;5.10;48.40;;;;;;2610060;54;20452;-72
2022/04/11 05:03:39;;;;;;;6.30;5.70;;;5.10;49.30;;;;;;2609370;54;20416;-73
2022/04/11 05:06:06;;;;;;;5.70;5.20;;;5.00;49.70;;;;;;2608397;54;20400;-72
2022/04/11 05:08:33;;;;;;;5.70;4.60;;;5.20;49.90;;;;;;2607445;46;20466;-73
2022/04/11 05:11:00;;;;;;;5.10;4.70;;;5.20;48.20;;;;;;2609686;54;20502;-72
2022/04/11 05:13:27;;;;;;;5.60;5.10;;;5.10;48.30;;;;;;2610238;39;20851;-73
2022/04/11 05:15:54;;;;;;;6.13;4.90;;;5.20;48.00;;;;;;2610652;54;20425;-72
2022/04/11 05:18:25;;;;;;;12.03;5.13;;;5.10;47.80;;;;;;2609679;54;21587;-74
2022/04/11 05:20:52;;;;;;;5.93;5.30;;;5.10;47.80;;;;;;2606901;47;20424;-73
2022/04/11 05:23:19;;;;;;;5.57;5.17;;;5.20;47.00;;;;;;2604508;54;21385;-74
2022/04/11 05:25:46;;;;;;;8.30;5.50;;;5.20;46.00;;;;;;2605994;54;20406;-74
2022/04/11 05:28:12;;;;;;;5.87;5.37;;;5.20;45.40;;;;;;2609022;54;20423;-72
2022/04/11 05:30:44;;;;;;;7.50;5.10;;;5.30;45.10;;;;;;2609746;46;20463;-73
2022/04/11 05:33:10;;;;;;;7.50;5.07;;;5.30;45.00;;;;;;2608017;47;20432;-74
2022/04/11 05:35:37;;;;;;;6.40;5.53;;;5.30;44.60;;;;;;2609350;54;20459;-73
2022/04/11 05:38:08;;;;;;;6.50;5.53;;;5.50;44.10;;;;;;2609907;54;20968;-73
2022/04/11 05:40:36;;;;;;;5.40;4.90;;;5.70;44.30;;;;;;2605460;54;20991;-73
2022/04/11 05:43:03;;;;;;;7.33;4.90;;;5.90;44.70;;;;;;2608139;39;22161;-74
2022/04/11 05:45:33;;;;;;;10.30;5.40;;;6.30;43.70;;;;;;2606638;47;20442;-73
2022/04/11 05:47:59;;;;;;;5.80;5.23;;;6.80;39.80;;;;;;2609135;54;20404;-73
2022/04/11 05:50:25;;;;;;;15.23;5.50;;;7.40;33.00;;;;;;2605730;54;20993;-73
2022/04/11 05:52:51;;;;;;;8.40;5.70;;;7.70;28.60;;;;;;2609576;54;20151;-74
2022/04/11 05:55:18;;;;;;;6.43;5.20;;;8.10;26.70;;;;;;2609793;54;20473;-73
2022/04/11 05:57:44;;;;;;;10.43;5.50;;;8.50;22.90;;;;;;2608397;39;20766;-74
2022/04/11 06:00:12;;;;;;;5.60;5.10;;;8.80;20.70;;;;;;2610155;54;21364;-73
2022/04/11 06:02:45;;;;;;;10.93;5.37;;;9.10;17.10;;;;;;2609438;54;20490;-71
2022/04/11 06:05:12;;;;;;;10.07;5.30;;;9.20;15.70;;;;;;2609353;47;20423;-74
2022/04/11 06:07:39;;;;;;;5.23;4.70;;;9.60;11.70;;;;;;2609322;54;20541;-73
2022/04/11 06:10:07;;;;;;;6.37;5.90;;;9.50;9.20;;;;;;2610079;47;20480;-73
2022/04/11 06:12:34;;;;;;;5.63;5.10;;;9.60;8.60;;;;;;2609389;47;20426;-73
2022/04/11 06:15:02;;;;;;;5.33;4.80;;;9.80;6.50;;;;;;2609744;54;21468;-73
2022/04/11 06:17:29;;;;;;;5.23;4.90;;;10.10;4.20;;;;;;2609862;51;20428;-73
2022/04/11 06:19:57;;;;;;;5.50;5.10;;;10.40;3.00;;;;;;2609982;54;20606;-74
2022/04/11 06:22:24;;;;;;;4.80;4.40;;;10.30;2.20;;;;;;2610026;47;20526;-74
2022/04/11 06:24:51;;;;;;;5.40;4.90;;;10.20;1.60;;;;;;2610792;54;20427;-72
2022/04/11 06:27:18;;;;;;;5.47;4.93;;;10.20;1.40;;;;;;2609105;54;20418;-73
2022/04/11 06:29:44;;;;;;;6.23;5.67;;;10.00;1.50;;;;;;2610162;39;20936;-73
2022/04/11 06:32:10;;;;;;;6.13;5.53;;;10.00;2.00;;;;;;2609885;47;20427;-74
2022/04/11 06:34:39;;;;;;;6.30;5.30;;;10.00;2.80;;;;;;2608833;39;20802;-72
2022/04/11 06:37:05;;;;;;;6.03;5.17;;;10.20;3.20;;;;;;2607649;54;20451;-72
2022/04/11 06:39:31;;;;;;;5.27;4.87;;;10.30;1.90;;;;;;2610046;39;20793;-73
2022/04/11 06:41:59;;;;;;;5.73;5.20;;;10.40;2.70;;;;;;2609941;54;20980;-72
2022/04/11 06:44:27;;;;;;;5.40;4.80;;;10.70;1.00;;;;;;2609395;51;20419;-75
2022/04/11 06:47:05;;;;;;;11.37;6.00;;;10.90;1.00;;;;;;2608768;54;20403;-72
2022/04/11 06:49:31;;;;;;;6.10;5.00;;;11.10;1.00;;;;;;2608024;54;20408;-72
2022/04/11 06:51:57;;;;;;;4.83;4.43;;;11.30;1.00;;;;;;2608919;47;20418;-73
2022/04/11 06:54:23;;;;;;;5.73;5.27;;;11.40;1.00;;;;;;2611958;39;21240;-71
2022/04/11 06:56:49;;;;;;;5.40;5.00;;;11.70;1.00;;;;;;2611115;54;20416;-72
2022/04/11 06:59:15;;;;;;;5.13;4.73;;;11.40;1.00;;;;;;2611408;54;20151;-73
2022/04/11 07:01:41;;;;;;;5.90;5.00;;;11.20;1.00;;;;;;2609595;54;20419;-73
2022/04/11 07:04:08;;;;;;;5.70;5.00;;;11.10;1.00;;;;;;2610776;54;20150;-73
2022/04/11 07:06:34;;;;;;;7.47;5.67;;;11.30;1.00;;;;;;2610013;54;20410;-73
2022/04/11 07:09:00;;;;;;;6.30;5.80;;;11.60;1.00;;;;;;2609982;54;20468;-73
2022/04/11 07:11:25;;;;;;;5.13;4.73;;;11.80;1.00;;;;;;2610669;39;20495;-73
2022/04/11 07:13:51;;;;;;;5.27;4.80;;;12.10;1.00;;;;;;2610065;54;20450;-73
2022/04/11 07:16:17;;;;;;;6.23;5.33;;;12.60;1.00;;;;;;2610858;54;20158;-73
2022/04/11 07:18:43;;;;;;;9.23;5.90;;;12.50;1.00;;;;;;2611786;54;20150;-74
2022/04/11 07:21:09;;;;;;;5.87;5.23;;;12.50;1.00;;;;;;2611429;39;20775;-73
2022/04/11 07:23:34;;;;;;;4.40;4.10;;;12.80;1.00;;;;;;2610658;54;20199;-72
2022/04/11 07:26:00;;;;;;;6.10;4.73;;;12.80;1.00;;;;;;2611342;54;20155;-72
2022/04/11 07:28:26;;;;;;;5.30;4.30;;;13.00;1.00;;;;;;2611469;54;20255;-72
2022/04/11 07:30:52;;;;;;;5.53;5.13;;;13.30;1.00;;;;;;2611075;54;20423;-72
2022/04/11 07:33:18;;;;;;;5.00;4.60;;;13.40;1.00;;;;;;2610551;54;20150;-73
2022/04/11 07:35:44;;;;;;;8.60;5.60;;;13.30;1.00;;;;;;2612444;54;20281;-73
2022/04/11 07:38:10;;;;;;;5.53;5.00;;;13.30;1.00;;;;;;2608848;54;20163;-72
2022/04/11 07:40:35;;;;;;;5.43;4.93;;;13.80;1.00;;;;;;2610306;54;20384;-73
2022/04/11 07:43:01;;;;;;;9.50;4.90;;;14.00;1.00;;;;;;2610626;54;20155;-72
2022/04/11 07:45:28;;;;;;;6.10;5.60;;;14.00;1.00;;;;;;2609924;50;20606;-72
2022/04/11 07:47:54;;;;;;;5.90;5.40;;;14.40;1.00;;;;;;2610574;54;20419;-73
2022/04/11 07:50:19;;;;;;;5.20;4.80;;;13.90;1.00;;;;;;2610407;54;20458;-72
2022/04/11 07:52:45;;;;;;;5.90;5.40;;;14.00;1.00;;;;;;2610938;31;20584;-73
2022/04/11 07:55:13;;;;;;;5.27;4.87;;;14.00;1.00;;;;;;2609931;54;20456;-73
2022/04/11 07:57:39;;;;;;;6.07;5.47;;;13.80;1.00;;;;;;2609943;54;21004;-73
2022/04/11 08:00:09;;;;;;;5.17;4.77;;;13.90;1.00;;;;;;2610423;47;20439;-73
2022/04/11 08:02:40;;;;;;;5.90;4.93;;;14.20;1.00;;;;;;2611037;54;20407;-73
2022/04/11 08:05:07;;;;;;;5.20;4.80;;;14.40;1.00;;;;;;2611105;31;20940;-73
2022/04/11 08:07:33;;;;;;;7.43;5.77;;;14.00;1.00;;;;;;2609755;54;20431;-72
2022/04/11 08:10:03;;;;;;;5.47;4.97;;;14.10;1.00;;;;;;2611099;54;20418;-71
2022/04/11 08:12:30;;;;;;;6.10;5.40;;;14.40;1.00;;;;;;2609412;54;21091;-72
2022/04/11 08:14:57;;;;;;;5.10;4.70;;;15.00;1.00;;;;;;2610439;54;21969;-73
2022/04/11 08:17:23;;;;;;;5.57;5.10;;;15.20;1.00;;;;;;2611017;54;20394;-72
2022/04/11 08:19:49;;;;;;;5.80;5.23;;;14.90;1.00;;;;;;2610735;54;21034;-72
2022/04/11 08:22:15;;;;;;;6.03;4.80;;;14.90;1.00;;;;;;2611380;54;20476;-72
2022/04/11 08:24:41;;;;;;;6.20;5.33;;;15.50;1.00;;;;;;2610274;54;20408;-72
2022/04/11 08:27:07;;;;;;;5.93;5.43;;;16.10;1.00;;;;;;2611227;54;20438;-72
2022/04/11 08:29:33;;;;;;;10.13;5.40;;;16.10;1.00;;;;;;2611007;31;20661;-73
2022/04/11 08:31:59;;;;;;;7.90;6.00;;;16.40;1.00;;;;;;2610723;54;20523;-72
2022/04/11 08:34:24;;;;;;;8.70;5.80;;;16.20;1.00;;;;;;2607923;54;20174;-72
2022/04/11 08:36:50;;;;;;;6.40;5.20;;;15.80;1.00;;;;;;2608723;54;20206;-73
2022/04/11 08:39:16;;;;;;;6.07;5.57;;;15.60;1.00;;;;;;2608579;54;21344;-72
2022/04/11 08:41:42;;;;;;;6.10;5.50;;;15.90;1.00;;;;;;2607903;54;20410;-72
2022/04/11 08:44:08;;;;;;;9.37;6.30;;;15.90;1.00;;;;;;2624403;36;20467;-73
2022/04/11 08:46:35;;;;;;;5.90;5.30;;;16.20;1.00;;;;;;2608487;47;20415;-73
2022/04/11 08:49:04;;;;;;;6.10;5.50;;;16.20;1.00;;;;;;2609729;54;20533;-73
2022/04/11 08:51:31;;;;;;;5.70;5.23;;;16.60;1.00;;;;;;2610642;54;20428;-73
2022/04/11 08:54:01;;;;;;;6.30;5.90;;;16.50;1.00;;;;;;2610233;39;20774;-72
2022/04/11 08:56:31;;;;;;;7.87;5.67;;;16.80;1.00;;;;;;2609993;54;20508;-72
2022/04/11 08:58:57;;;;;;;6.87;5.70;;;17.00;1.00;;;;;;2610105;54;20424;-71
2022/04/11 09:01:23;;;;;;;6.50;5.83;;;16.80;1.00;;;;;;2609506;54;20556;-73
2022/04/11 09:03:49;;;;;;;5.77;5.30;;;16.30;1.00;;;;;;2610177;54;20972;-72
2022/04/11 09:06:17;;;;;;;6.70;5.67;;;16.30;1.00;;;;;;2609779;54;20422;-71
2022/04/11 09:08:55;;;;;;;6.97;6.23;;;16.40;1.00;;;;;;2609880;54;20458;-71
2022/04/11 09:11:29;;;;;;;6.07;5.47;;;16.90;1.00;;;;;;2610377;54;20422;-72
2022/04/11 09:13:56;;;;;;;4.90;4.50;;;17.40;1.00;;;;;;2609351;54;20409;-71
2022/04/11 09:16:22;;;;;;;5.37;4.87;;;17.10;1.00;;;;;;2609158;47;20409;-73
2022/04/11 09:18:53;;;;;;;5.03;4.67;;;17.40;1.00;;;;;;2609958;54;20600;-72
2022/04/11 09:21:21;;;;;;;5.73;4.53;;;17.40;1.00;;;;;;2610214;54;20159;-73
2022/04/11 09:23:48;;;;;;;5.20;4.70;;;17.10;1.00;;;;;;2609938;39;20975;-72
2022/04/11 09:26:22;;;;;;;5.20;4.80;;;16.90;1.00;;;;;;2610731;54;20407;-72
2022/04/11 09:29:00;;;;;;;5.27;4.87;;;17.40;1.00;;;;;;2610232;54;20447;-73
2022/04/11 09:31:27;;;;;;;5.50;5.00;;;17.40;1.00;;;;;;2612022;39;20743;-72
2022/04/11 09:33:54;;;;;;;5.47;5.00;;;17.30;1.00;;;;;;2609984;47;20421;-72
2022/04/11 09:36:20;;;;;;;5.40;5.10;;;17.50;1.00;;;;;;2608683;54;20571;-73
2022/04/11 09:38:59;;;;;;;5.50;5.10;;;17.90;1.00;;;;;;2610300;54;20480;-74
2022/04/11 09:41:34;;;;;;;5.27;4.90;;;17.90;1.00;;;;;;2610470;54;20511;-73
2022/04/11 09:44:37;;;;;;;5.90;5.40;;;18.00;1.00;;;;;;2610098;54;21284;-72
2022/04/11 09:47:05;;;;;;;5.20;4.90;;;18.00;1.00;;;;;;2609955;47;20458;-72
2022/04/11 09:49:32;;;;;;;5.50;5.10;;;16.70;1.00;;;;;;2610558;54;20423;-72
2022/04/11 09:52:02;;;;;;;6.10;5.60;;;17.10;1.00;;;;;;2607700;54;20761;-70
2022/04/11 09:54:29;;;;;;;5.37;4.87;;;17.50;1.00;;;;;;2609359;54;20424;-71
2022/04/11 09:57:01;;;;;;;5.17;4.77;;;17.70;1.00;;;;;;2611360;54;20427;-72
2022/04/11 09:59:27;;;;;;;6.77;5.47;;;17.90;1.00;;;;;;2610172;54;20460;-72
2022/04/11 10:01:54;;;;;;;5.33;5.00;;;17.70;1.00;;;;;;2609035;54;20424;-72
2022/04/11 10:04:21;;;;;;;5.60;5.30;;;17.40;1.00;;;;;;2610117;54;20506;-73
2022/04/11 10:06:48;;;;;;;6.70;5.60;;;17.70;1.00;;;;;;2608401;54;20384;-72
2022/04/11 10:09:15;;;;;;;6.30;5.83;;;17.60;1.00;;;;;;2609791;54;20989;-72
2022/04/11 10:11:42;;;;;;;6.10;5.50;;;17.70;1.00;;;;;;2610502;54;20389;-72
2022/04/11 10:14:12;;;;;;;8.60;5.13;;;17.50;1.00;;;;;;2609731;54;20990;-73
2022/04/11 10:16:42;;;;;;;6.03;5.50;;;17.50;1.00;;;;;;2609288;54;20499;-73
2022/04/11 10:19:09;;;;;;;7.13;6.00;;;17.70;1.00;;;;;;2609065;54;20446;-73
2022/04/11 10:21:43;;;;;;;5.00;4.70;;;17.50;1.00;;;;;;2610106;54;20896;-72
2022/04/11 10:24:28;;;;;;;6.10;5.70;;;18.00;1.00;;;;;;2610913;54;20525;-73
2022/04/11 10:26:56;;;;;;;5.10;4.80;;;18.30;1.00;;;;;;2610405;54;20952;-72
2022/04/11 10:29:38;;;;;;;5.70;5.30;;;18.40;1.00;;;;;;2609697;39;20813;-73
2022/04/11 10:32:06;;;;;;;5.20;4.90;;;18.90;1.00;;;;;;2609968;54;20416;-73
2022/04/11 10:35:00;;;;;;;5.63;5.10;;;19.00;1.00;;;;;;2608611;54;20421;-73
2022/04/11 10:37:49;;;;;;;6.90;6.23;;;19.00;1.00;;;;;;2608776;47;20433;-72
2022/04/11 10:40:21;;;;;;;5.67;5.17;;;18.60;1.00;;;;;;2610188;54;20435;-73
2022/04/11 10:43:08;;;;;;;5.63;5.20;;;18.90;1.00;;;;;;2610289;54;21550;-72
2022/04/11 10:45:35;;;;;;;5.27;4.90;;;18.70;1.00;;;;;;2609325;54;20424;-73
2022/04/11 10:48:05;;;;;;;7.43;6.73;;;18.10;1.00;;;;;;2609910;54;20427;-72
2022/04/11 10:50:41;;;;;;;13.23;5.60;;;18.00;1.00;;;;;;2643784;36;20474;-73
2022/04/11 10:53:13;;;;;;;5.73;5.17;;;18.40;1.00;;;;;;2612253;39;20765;-72
2022/04/11 10:56:05;;;;;;;5.27;4.87;;;18.70;1.00;;;;;;2613709;54;21151;-72
2022/04/11 10:58:43;;;;;;;5.20;4.90;;;18.60;1.00;;;;;;2614348;39;20833;-72
2022/04/11 11:01:11;;;;;;;7.00;5.23;;;18.90;1.00;;;;;;2611047;54;20439;-71
2022/04/11 11:03:40;;;;;;;6.53;5.67;;;19.00;1.00;;;;;;2609018;47;20468;-72
2022/04/11 11:06:17;;;;;;;5.60;5.03;;;19.00;1.00;;;;;;2609588;54;20423;-73
2022/04/11 11:08:43;;;;;;;5.63;5.13;;;19.30;1.00;;;;;;2611084;54;20454;-72
2022/04/11 11:11:20;;;;;;;5.77;5.20;;;19.50;1.00;;;;;;2610145;54;20992;-71
2022/04/11 11:13:47;;;;;;;5.40;5.10;;;19.20;1.00;;;;;;2609033;54;20429;-73
2022/04/11 11:16:15;;;;;;;5.60;5.10;;;19.10;1.00;;;;;;2607487;54;20437;-72
2022/04/11 11:19:04;;;;;;;5.63;5.23;;;19.10;1.00;;;;;;2610386;54;20388;-72
2022/04/11 11:21:33;;;;;;;6.40;5.90;;;18.80;1.00;;;;;;2608915;54;21132;-72
2022/04/11 11:24:06;;;;;;;6.03;5.53;;;18.40;1.00;;;;;;2610008;54;20401;-72
2022/04/11 11:27:04;;;;;;;5.80;5.40;;;18.60;1.00;;;;;;2610012;39;20810;-73
2022/04/11 11:29:43;;;;;;;5.67;5.20;;;19.00;1.00;;;;;;2609117;46;20516;-72
2022/04/11 11:32:12;;;;;;;6.30;5.70;;;19.20;1.00;;;;;;2609028;47;21402;-72
2022/04/11 11:34:39;;;;;;;5.77;5.27;;;19.40;1.00;;;;;;2609360;54;20827;-73
2022/04/11 11:37:07;;;;;;;5.53;5.23;;;19.60;1.00;;;;;;2610023;54;21271;-73
2022/04/11 11:39:37;;;;;;;6.13;5.63;;;19.30;1.00;;;;;;2609511;54;20420;-72
2022/04/11 11:42:10;;;;;;;5.77;5.23;;;19.50;1.00;;;;;;2610278;46;20436;-72
2022/04/11 11:44:50;;;;;;;6.67;5.60;;;19.10;1.00;;;;;;2609734;54;20392;-72
2022/04/11 11:47:16;;;;;;;5.83;5.43;;;18.80;1.00;;;;;;2611062;39;22313;-72
2022/04/11 11:49:47;;;;;;;5.40;5.10;;;19.00;1.00;;;;;;2610009;54;21302;-72
2022/04/11 11:52:15;;;;;;;5.63;5.23;;;19.30;1.00;;;;;;2609656;46;20424;-72
2022/04/11 11:54:44;;;;;;;6.07;5.63;;;19.50;1.00;;;;;;2610842;47;20432;-73
2022/04/11 11:57:22;;;;;;;5.87;5.30;;;19.80;1.00;;;;;;2610809;54;20426;-72
2022/04/11 11:59:59;;;;;;;6.70;6.00;;;19.70;1.00;;;;;;2610416;54;20420;-72
2022/04/11 12:05:37;;;;;;;6.33;5.73;;;19.80;1.00;;;;;;2609434;46;20497;-71
2022/04/11 12:08:03;;;;;;;6.63;5.30;;;20.00;1.00;;;;;;2610183;54;21026;-73
2022/04/11 12:10:29;;;;;;;6.10;5.60;;;20.60;1.00;;;;;;2611251;54;20427;-72
2022/04/11 12:12:55;;;;;;;7.80;6.20;;;20.70;1.00;;;;;;2610877;54;20158;-72
2022/04/11 12:15:22;;;;;;;7.80;5.80;;;20.20;1.00;;;;;;2608421;54;20416;-72
2022/04/11 12:17:50;;;;;;;6.10;5.70;;;19.80;1.00;;;;;;2609649;54;21395;-72
2022/04/11 12:20:21;;;;;;;6.40;5.83;;;19.80;1.00;;;;;;2609470;46;20826;-72
2022/04/11 12:23:10;;;;;;;6.33;5.83;;;19.60;1.00;;;;;;2610226;39;21302;-72
2022/04/11 12:25:37;;;;;;;5.63;5.23;;;19.40;1.00;;;;;;2610508;54;20404;-72
2022/04/11 12:28:25;;;;;;;5.87;5.40;;;19.70;1.00;;;;;;2610645;54;20442;-73
2022/04/11 12:31:03;;;;;;;9.43;5.30;;;20.20;1.00;;;;;;2610173;54;20434;-73
2022/04/11 12:33:49;;;;;;;5.63;5.23;;;20.60;1.00;;;;;;2609457;54;20429;-72
2022/04/11 12:36:19;;;;;;;5.93;5.43;;;20.60;1.00;;;;;;2609315;46;20425;-73
2022/04/11 12:38:48;;;;;;;6.40;5.80;;;20.10;1.00;;;;;;2610238;51;20424;-72
2022/04/11 12:41:28;;;;;;;5.77;5.27;;;20.10;1.00;;;;;;2610514;54;20426;-71
2022/04/11 12:44:07;;;;;;;6.50;6.10;;;20.80;1.00;;;;;;2610265;54;20546;-72
2022/04/11 12:46:56;;;;;;;7.10;6.40;;;21.40;1.00;;;;;;2611059;54;20399;-72
2022/04/11 12:49:22;;;;;;;6.17;5.67;;;21.00;1.00;;;;;;2608244;54;20429;-72
2022/04/11 12:51:58;;;;;;;6.50;6.00;;;21.10;1.00;;;;;;2608530;54;20395;-73
2022/04/11 12:54:35;;;;;;;6.93;6.43;;;21.30;1.00;;;;;;2609022;54;20419;-73
2022/04/11 12:57:01;;;;;;;7.07;6.23;;;20.70;1.00;;;;;;2608927;54;20431;-72
2022/04/11 12:59:29;;;;;;;6.47;5.97;;;20.80;1.00;;;;;;2608433;54;20531;-73
2022/04/11 13:01:56;;;;;;;6.67;6.17;;;21.00;1.00;;;;;;2606699;54;20414;-72
2022/04/11 13:04:22;;;;;;;5.50;5.10;;;20.80;1.00;;;;;;2607133;54;20412;-73
2022/04/11 13:06:49;;;;;;;6.87;6.27;;;20.80;1.00;;;;;;2605563;54;21136;-71
2022/04/11 13:09:20;;;;;;;6.20;5.70;;;20.80;1.00;;;;;;2606990;54;20422;-77
2022/04/11 13:11:47;;;;;;;5.73;5.37;;;21.40;1.00;;;;;;2607336;47;20522;-72